Time;durP1;ratioP1;P1;durP2;ratioP2;P2;SDS_P1;SDS_P2;PMS_P1;PMS_P2;Temp;Humidity;BMP_temperature;BMP_pressure;BME280_temperature;BME280_humidity;BME280_pressure;Samples;Min_cycle;Max_cycle;Signal;HPM_P1;HPM_P2
2023/11/17 00:02:16;;;;;;;37.90;20.20;;;;;;;4.60;96.35;99172.91;220118;1256;141139;-73
2023/11/17 00:07:18;;;;;;;37.20;21.40;;;;;;;4.56;96.31;99168.07;217288;1258;143638;-71
2023/11/17 00:12:21;;;;;;;34.80;19.30;;;;;;;4.54;96.36;99170.14;219320;1256;140290;-71
2023/11/17 00:17:25;;;;;;;42.50;21.50;;;;;;;4.54;96.64;99163.01;220147;1257;140660;-72
2023/11/17 00:22:29;;;;;;;34.40;19.90;;;;;;;4.57;96.98;99159.98;218734;1256;140433;-70
2023/11/17 00:27:37;;;;;;;33.70;19.20;;;;;;;4.57;96.72;99164.21;220023;1256;141236;-71
2023/11/17 00:32:41;;;;;;;36.20;19.40;;;;;;;4.55;96.74;99167.38;219969;1256;140714;-71
2023/11/17 00:37:43;;;;;;;33.60;19.30;;;;;;;4.53;96.62;99160.65;220056;1257;140397;-71
2023/11/17 00:42:46;;;;;;;31.00;18.40;;;;;;;4.51;96.98;99159.11;220037;1257;140639;-72
2023/11/17 00:47:49;;;;;;;36.10;19.00;;;;;;;4.49;96.86;99159.85;220231;1257;141156;-74
2023/11/17 00:52:52;;;;;;;32.50;18.80;;;;;;;4.50;97.14;99162.94;218706;1257;140531;-72
2023/11/17 00:57:55;;;;;;;36.20;17.40;;;;;;;4.50;97.01;99162.64;219984;1256;141784;-71
2023/11/17 01:02:58;;;;;;;39.70;19.60;;;;;;;4.50;97.11;99160.95;220129;1257;140251;-74
2023/11/17 01:08:01;;;;;;;39.60;20.40;;;;;;;4.50;96.93;99158.91;220184;1255;140533;-74
2023/11/17 01:13:06;;;;;;;40.80;21.50;;;;;;;4.51;97.17;99154.48;220024;1257;139753;-74
2023/11/17 01:18:09;;;;;;;40.80;22.70;;;;;;;4.51;97.07;99151.56;219689;1256;405036;-71
2023/11/17 01:23:13;;;;;;;39.00;19.00;;;;;;;4.50;96.92;99148.77;220150;1256;140496;-73
2023/11/17 01:28:17;;;;;;;37.80;20.00;;;;;;;4.48;96.71;99148.93;219014;1256;140079;-73
2023/11/17 01:33:19;;;;;;;32.80;17.10;;;;;;;4.48;96.94;99150.59;220132;1256;141040;-74
2023/11/17 01:38:21;;;;;;;35.30;19.00;;;;;;;4.52;97.22;99149.89;218811;1256;139910;-74
2023/11/17 01:43:25;;;;;;;35.70;19.20;;;;;;;4.54;97.31;99146.60;218206;1256;141300;-74
2023/11/17 01:48:33;;;;;;;46.60;24.00;;;;;;;4.54;97.32;99143.42;220040;1256;140431;-72
2023/11/17 01:53:36;;;;;;;42.80;20.00;;;;;;;4.56;97.23;99141.48;220022;1256;140733;-70
2023/11/17 01:58:40;;;;;;;38.30;22.30;;;;;;;4.53;97.26;99138.44;220161;1256;141454;-71
2023/11/17 02:03:44;;;;;;;30.20;16.00;;;;;;;4.55;97.40;99136.00;218309;1256;140465;-71
2023/11/17 02:09:15;;;;;;;45.00;24.30;;;;;;;4.58;97.65;99132.52;220097;1257;140494;-75
2023/11/17 02:14:23;;;;;;;34.30;17.20;;;;;;;4.66;98.01;99128.89;220113;1256;142189;-73
2023/11/17 02:19:42;;;;;;;33.00;19.00;;;;;;;4.71;97.83;99120.79;220092;1255;140477;-75
2023/11/17 02:25:10;;;;;;;40.80;20.50;;;;;;;4.75;97.37;99119.19;217416;1257;140591;-74
2023/11/17 02:30:19;;;;;;;33.90;17.60;;;;;;;4.76;97.61;99121.17;220364;1255;141408;-75
2023/11/17 02:35:28;;;;;;;34.50;17.70;;;;;;;4.79;97.67;99120.84;218183;1257;140259;-76
2023/11/17 02:40:32;;;;;;;36.70;20.40;;;;;;;4.80;97.72;99122.25;216987;1256;139992;-76
2023/11/17 02:45:38;;;;;;;37.30;20.60;;;;;;;4.76;97.50;99125.60;220078;1256;140205;-74
2023/11/17 02:51:03;;;;;;;33.60;17.70;;;;;;;4.73;97.84;99129.19;220179;1257;140510;-72
2023/11/17 02:56:06;;;;;;;32.30;19.60;;;;;;;4.74;97.80;99127.48;218407;1255;140192;-74
2023/11/17 03:01:08;;;;;;;36.30;20.90;;;;;;;4.70;97.47;99135.42;220466;1255;140778;-73
2023/11/17 03:06:10;;;;;;;41.40;22.00;;;;;;;4.70;97.87;99135.61;220382;1255;140663;-78
2023/11/17 03:11:12;;;;;;;39.80;20.30;;;;;;;4.73;97.76;99137.27;220687;1256;140031;-76
2023/11/17 03:16:23;;;;;;;42.50;20.80;;;;;;;4.78;97.58;99127.83;220590;1254;141817;-74
2023/11/17 03:21:28;;;;;;;36.40;21.60;;;;;;;4.80;97.79;99126.96;220355;1255;141342;-75
2023/11/17 03:26:32;;;;;;;32.70;19.40;;;;;;;4.79;97.45;99129.44;220368;1256;142588;-69
2023/11/17 03:31:35;;;;;;;26.40;17.50;;;;;;;4.79;97.60;99134.29;220535;1256;140697;-79
2023/11/17 03:36:38;;;;;;;30.30;17.50;;;;;;;4.77;97.06;99132.86;220349;1255;141651;-77
2023/11/17 03:41:41;;;;;;;38.10;20.30;;;;;;;4.78;97.62;99132.05;220634;1256;150508;-70
2023/11/17 03:46:46;;;;;;;39.80;18.70;;;;;;;4.82;97.81;99131.91;220263;1256;140794;-71
2023/11/17 03:51:51;;;;;;;39.70;20.00;;;;;;;4.85;97.71;99131.82;220339;1256;140320;-71
2023/11/17 03:56:56;;;;;;;45.00;22.70;;;;;;;4.92;97.87;99130.36;220479;1255;140355;-71
2023/11/17 04:02:00;;;;;;;44.70;20.50;;;;;;;4.97;98.04;99129.16;220320;1257;140637;-70
2023/11/17 04:07:03;;;;;;;41.20;22.20;;;;;;;5.00;97.49;99131.05;218935;1255;140474;-70
2023/11/17 04:12:09;;;;;;;36.40;20.20;;;;;;;5.02;97.94;99129.30;220093;1258;140606;-70
2023/11/17 04:17:13;;;;;;;41.30;20.60;;;;;;;5.06;97.64;99133.05;220231;1256;140694;-73
2023/11/17 04:22:18;;;;;;;41.60;24.00;;;;;;;5.07;97.53;99131.17;217850;1256;140386;-74
2023/11/17 04:27:24;;;;;;;50.10;22.30;;;;;;;5.07;97.47;99132.77;217411;1256;140109;-71
2023/11/17 04:32:27;;;;;;;49.60;24.20;;;;;;;5.07;97.36;99135.41;220246;1255;142296;-70
2023/11/17 04:37:31;;;;;;;48.00;22.90;;;;;;;5.07;97.66;99136.16;220122;1256;140688;-70
2023/11/17 04:42:34;;;;;;;59.60;24.80;;;;;;;5.09;97.47;99134.90;219435;1256;140103;-71
2023/11/17 04:47:37;;;;;;;45.90;24.50;;;;;;;5.12;97.88;99138.23;220247;1256;141269;-70
2023/11/17 04:52:40;;;;;;;54.90;23.00;;;;;;;5.14;97.54;99142.35;219966;1257;141371;-68
2023/11/17 04:57:44;;;;;;;46.00;23.30;;;;;;;5.13;97.58;99140.98;218902;1256;141475;-70
2023/11/17 05:02:48;;;;;;;39.90;20.20;;;;;;;5.08;96.90;99137.88;218213;1256;140627;-72
2023/11/17 05:07:50;;;;;;;43.50;21.10;;;;;;;5.04;97.27;99144.20;220194;1256;141899;-73
2023/11/17 05:12:53;;;;;;;35.60;17.40;;;;;;;4.99;96.86;99149.66;220374;1256;140361;-72
2023/11/17 05:17:56;;;;;;;31.40;16.80;;;;;;;4.94;96.94;99148.07;220508;1255;141362;-72
2023/11/17 05:23:00;;;;;;;83.20;17.50;;;;;;;4.92;96.85;99157.39;220402;1256;140619;-71
2023/11/17 05:28:04;;;;;;;30.90;16.50;;;;;;;4.87;96.58;99161.09;220197;1255;140346;-69
2023/11/17 05:33:07;;;;;;;37.70;22.40;;;;;;;4.87;96.96;99163.37;220104;1256;140803;-70
2023/11/17 05:38:10;;;;;;;27.00;14.40;;;;;;;4.88;97.04;99168.63;220051;1256;140714;-70
2023/11/17 05:43:13;;;;;;;41.20;18.40;;;;;;;4.84;96.65;99175.53;220391;1256;140889;-74
2023/11/17 05:48:17;;;;;;;67.90;38.80;;;;;;;4.82;96.87;99178.66;220189;1256;140090;-78
2023/11/17 05:53:20;;;;;;;41.10;19.10;;;;;;;4.82;96.76;99180.34;220227;1256;154324;-77
2023/11/17 05:58:23;;;;;;;36.90;20.90;;;;;;;4.80;96.71;99181.08;220049;1258;140869;-72
2023/11/17 06:03:27;;;;;;;36.70;18.00;;;;;;;4.81;96.75;99183.74;220068;1258;140508;-72
2023/11/17 06:08:31;;;;;;;31.70;16.50;;;;;;;4.82;96.80;99186.43;220183;1256;140474;-73
2023/11/17 06:13:38;;;;;;;45.70;17.90;;;;;;;4.83;96.71;99188.61;218130;1256;140279;-71
2023/11/17 06:18:43;;;;;;;36.60;18.10;;;;;;;4.83;96.69;99187.84;219754;1256;141285;-72
2023/11/17 06:23:46;;;;;;;36.20;20.10;;;;;;;4.83;96.72;99188.73;220196;1256;141514;-72
2023/11/17 06:28:49;;;;;;;43.00;19.60;;;;;;;4.83;96.85;99187.48;220159;1256;140469;-72
2023/11/17 06:33:53;;;;;;;56.10;20.80;;;;;;;4.84;96.45;99195.64;220193;1256;141089;-73
2023/11/17 06:38:57;;;;;;;41.20;15.60;;;;;;;4.85;97.03;99202.70;218952;1256;140069;-72
2023/11/17 06:44:00;;;;;;;33.60;15.50;;;;;;;4.87;96.78;99203.48;220280;1256;141200;-73
2023/11/17 06:49:04;;;;;;;23.50;12.00;;;;;;;4.90;96.70;99210.27;218856;1256;141319;-69
2023/11/17 06:54:15;;;;;;;36.90;13.60;;;;;;;4.90;96.71;99211.57;220045;1258;140208;-72
2023/11/17 06:59:20;;;;;;;50.00;18.30;;;;;;;4.86;96.39;99214.61;220343;1256;140790;-73
2023/11/17 07:04:23;;;;;;;24.30;14.00;;;;;;;4.84;96.71;99217.98;219216;1257;142012;-70
2023/11/17 07:09:30;;;;;;;60.20;17.70;;;;;;;4.85;96.67;99216.11;218519;1256;140291;-71
2023/11/17 07:14:35;;;;;;;40.20;16.30;;;;;;;4.86;96.46;99214.94;220256;1256;140507;-70
2023/11/17 07:19:38;;;;;;;25.10;11.50;;;;;;;4.85;96.35;99225.70;220191;1256;142742;-70
2023/11/17 07:24:41;;;;;;;25.20;15.50;;;;;;;4.84;96.72;99234.16;220245;1256;140040;-69
2023/11/17 07:29:45;;;;;;;25.30;14.10;;;;;;;4.85;96.61;99231.42;220338;1256;140295;-70
2023/11/17 07:34:49;;;;;;;26.00;14.90;;;;;;;4.88;96.40;99237.71;220232;1256;140350;-71
2023/11/17 07:39:53;;;;;;;68.40;14.50;;;;;;;4.88;96.32;99243.73;220198;1256;140183;-75
2023/11/17 07:44:55;;;;;;;31.40;16.50;;;;;;;4.87;96.06;99237.46;219987;1259;141112;-72
2023/11/17 07:49:57;;;;;;;44.90;16.70;;;;;;;4.85;96.31;99245.98;220203;1256;140153;-70
2023/11/17 07:55:00;;;;;;;31.00;13.20;;;;;;;4.86;96.12;99249.27;220181;1256;140904;-71
2023/11/17 08:00:17;;;;;;;28.60;14.40;;;;;;;4.88;96.42;99254.29;220117;1256;140779;-70
2023/11/17 08:05:20;;;;;;;31.60;18.40;;;;;;;4.87;95.95;99259.92;219896;1257;140855;-72
2023/11/17 08:10:24;;;;;;;39.40;17.70;;;;;;;4.89;96.51;99263.20;220190;1256;140697;-69
2023/11/17 08:15:29;;;;;;;31.00;15.80;;;;;;;4.91;96.25;99265.02;220012;1256;140486;-69
2023/11/17 08:20:32;;;;;;;39.50;17.30;;;;;;;4.96;96.35;99269.80;219992;1257;141934;-69
2023/11/17 08:25:35;;;;;;;39.10;19.50;;;;;;;5.02;96.58;99275.64;219649;1256;140659;-70
2023/11/17 08:30:41;;;;;;;35.80;18.20;;;;;;;5.07;96.51;99279.40;220218;1256;140441;-72
2023/11/17 08:35:57;;;;;;;40.50;19.20;;;;;;;5.10;96.47;99288.58;220409;1256;142471;-71
2023/11/17 08:41:00;;;;;;;47.70;20.20;;;;;;;5.12;96.31;99292.98;220374;1256;140598;-70
2023/11/17 08:46:06;;;;;;;38.30;17.60;;;;;;;5.15;96.61;99300.63;219684;1257;141912;-73
2023/11/17 08:51:09;;;;;;;40.50;17.90;;;;;;;5.14;96.18;99305.14;219034;1256;141480;-71
2023/11/17 08:56:12;;;;;;;45.60;20.40;;;;;;;5.06;95.78;99311.63;219500;1256;140383;-71
2023/11/17 09:01:15;;;;;;;43.80;19.70;;;;;;;5.00;95.97;99320.30;217361;1256;141120;-72
2023/11/17 09:06:19;;;;;;;51.30;23.60;;;;;;;5.00;96.33;99324.61;220016;1256;141089;-71
2023/11/17 09:11:22;;;;;;;49.90;20.80;;;;;;;5.00;96.23;99329.90;220124;1257;142063;-73
2023/11/17 09:16:25;;;;;;;42.90;19.00;;;;;;;5.00;96.46;99334.20;219303;1256;140757;-72
2023/11/17 09:21:42;;;;;;;;;;;;;;;5.00;95.88;99330.59;220285;1256;141110;-71
2023/11/17 09:26:45;;;;;;;48.50;21.10;;;;;;;4.96;96.33;99334.45;220646;1259;127200;-70
2023/11/17 09:31:47;;;;;;;47.70;18.70;;;;;;;4.96;96.39;99337.41;219559;1259;140448;-70
2023/11/17 09:36:51;;;;;;;39.10;20.50;;;;;;;4.98;96.35;99338.11;218384;1256;140467;-70
2023/11/17 09:41:55;;;;;;;62.20;23.80;;;;;;;4.98;96.36;99340.50;220407;1258;140058;-71
2023/11/17 09:47:21;;;;;;;49.90;24.20;;;;;;;5.00;96.42;99344.52;220036;1256;141385;-71
2023/11/17 09:52:26;;;;;;;47.50;21.60;;;;;;;4.99;96.29;99342.65;220158;1256;140303;-70
2023/11/17 09:57:30;;;;;;;41.80;18.90;;;;;;;4.97;96.14;99344.00;220090;1256;140659;-71
2023/11/17 10:02:35;;;;;;;46.60;24.70;;;;;;;4.99;96.25;99342.52;220139;1256;140789;-71
2023/11/17 10:07:38;;;;;;;109.90;26.40;;;;;;;4.98;96.29;99348.10;220034;1256;140780;-71
2023/11/17 10:12:48;;;;;;;51.70;22.80;;;;;;;4.99;96.46;99347.23;220055;1257;140143;-71
2023/11/17 10:18:16;;;;;;;55.60;23.70;;;;;;;5.04;96.31;99358.05;220266;1256;141924;-71
2023/11/17 10:23:20;;;;;;;56.30;26.70;;;;;;;5.06;96.40;99366.98;220193;1256;140236;-71
2023/11/17 10:28:24;;;;;;;53.20;24.10;;;;;;;5.09;96.32;99369.38;218027;1256;140422;-70
2023/11/17 10:33:34;;;;;;;62.40;26.90;;;;;;;5.09;96.18;99368.23;219876;1256;140535;-70
2023/11/17 10:38:45;;;;;;;59.30;29.60;;;;;;;5.08;95.73;99368.08;220095;1258;140315;-72
2023/11/17 10:43:54;;;;;;;52.10;26.80;;;;;;;5.07;95.55;99364.98;220193;1259;141457;-72
2023/11/17 10:48:59;;;;;;;55.20;26.30;;;;;;;5.07;95.80;99369.22;219557;1257;140060;-73
2023/11/17 10:54:04;;;;;;;48.50;24.00;;;;;;;5.06;95.75;99370.67;220210;1256;143029;-72
2023/11/17 10:59:15;;;;;;;68.70;30.70;;;;;;;5.05;95.85;99380.04;219425;1260;140566;-72
2023/11/17 11:04:29;;;;;;;59.40;28.10;;;;;;;5.03;95.37;99382.48;218963;1260;151005;-71
2023/11/17 11:09:38;;;;;;;64.40;28.30;;;;;;;4.96;95.21;99384.43;220090;1258;141169;-70
2023/11/17 11:14:43;;;;;;;51.60;24.90;;;;;;;4.91;95.43;99388.30;220016;1256;140667;-71
2023/11/17 11:19:50;;;;;;;61.30;27.70;;;;;;;4.92;95.50;99395.09;220000;1260;141831;-72
2023/11/17 11:25:15;;;;;;;88.40;26.90;;;;;;;4.93;95.82;99395.41;220064;1256;140896;-71
2023/11/17 11:30:20;;;;;;;51.80;27.00;;;;;;;4.94;95.49;99398.25;220175;1257;141411;-69
2023/11/17 11:35:23;;;;;;;56.70;28.60;;;;;;;5.02;95.63;99399.34;220375;1259;141472;-70
2023/11/17 11:40:26;;;;;;;61.50;26.70;;;;;;;5.05;95.45;99401.86;220351;1259;141609;-72
2023/11/17 11:45:29;;;;;;;55.10;25.80;;;;;;;5.02;95.05;99403.77;220047;1256;140840;-72
2023/11/17 11:50:38;;;;;;;49.70;25.10;;;;;;;4.90;95.02;99402.81;220062;1257;140092;-72
2023/11/17 11:55:53;;;;;;;54.30;25.90;;;;;;;4.85;95.30;99403.81;220119;1260;140320;-72
2023/11/17 12:01:00;;;;;;;52.50;26.70;;;;;;;4.88;95.59;99411.17;220020;1256;141183;-73
2023/11/17 12:06:05;;;;;;;49.10;24.20;;;;;;;4.89;95.57;99416.96;219972;1256;140192;-72
2023/11/17 12:11:14;;;;;;;42.20;21.40;;;;;;;4.89;95.30;99418.70;220073;1260;142155;-71
2023/11/17 12:16:30;;;;;;;58.50;24.80;;;;;;;4.88;95.22;99421.84;220007;1257;140459;-69
2023/11/17 12:21:41;;;;;;;49.80;23.00;;;;;;;4.88;95.36;99427.54;220275;1258;141148;-69
2023/11/17 12:26:56;;;;;;;44.20;21.90;;;;;;;4.84;94.93;99425.31;220109;1257;249339;-68
2023/11/17 12:32:08;;;;;;;53.90;23.00;;;;;;;4.79;95.13;99429.53;220344;1257;141248;-69
2023/11/17 12:37:14;;;;;;;56.60;24.70;;;;;;;4.78;95.26;99435.17;219950;1257;140133;-69
2023/11/17 12:42:20;;;;;;;54.30;29.70;;;;;;;4.79;95.36;99437.34;220052;1260;140656;-72
2023/11/17 12:47:23;;;;;;;26.70;14.90;;;;;;;4.80;95.27;99439.65;220271;1258;140223;-68
2023/11/17 12:52:34;;;;;;;28.70;15.80;;;;;;;4.74;94.58;99444.48;220287;1256;140426;-72
2023/11/17 12:57:39;;;;;;;22.90;13.40;;;;;;;4.70;94.73;99448.70;219006;1260;140649;-70
2023/11/17 13:02:43;;;;;;;44.80;21.90;;;;;;;4.67;94.69;99446.48;220478;1257;141178;-70
2023/11/17 13:07:48;;;;;;;27.50;13.60;;;;;;;4.61;94.41;99451.67;220093;1256;141725;-69
2023/11/17 13:12:52;;;;;;;40.70;18.00;;;;;;;4.54;94.72;99451.27;217722;1256;143664;-69
2023/11/17 13:17:57;;;;;;;19.20;10.50;;;;;;;4.50;94.69;99449.69;219809;1255;777771;-67
2023/11/17 13:23:00;;;;;;;10.80;7.60;;;;;;;4.46;94.49;99450.91;220347;1258;139991;-67
2023/11/17 13:28:04;;;;;;;10.60;7.20;;;;;;;4.41;94.46;99447.65;220037;1257;140189;-68
2023/11/17 13:33:08;;;;;;;30.00;10.80;;;;;;;4.37;94.27;99451.33;220152;1260;141133;-69
2023/11/17 13:38:11;;;;;;;8.90;7.40;;;;;;;4.33;94.17;99459.52;220075;1257;140817;-68
2023/11/17 13:43:17;;;;;;;13.90;8.80;;;;;;;4.31;94.27;99466.14;220088;1257;140695;-69
2023/11/17 13:48:20;;;;;;;18.40;10.10;;;;;;;4.32;94.33;99469.98;220162;1257;141157;-68
2023/11/17 13:53:24;;;;;;;12.40;7.30;;;;;;;4.32;94.22;99478.02;220235;1257;141254;-68
2023/11/17 13:58:31;;;;;;;15.40;11.60;;;;;;;4.29;94.19;99483.06;220049;1257;141416;-71
2023/11/17 14:03:35;;;;;;;10.30;8.20;;;;;;;4.26;94.33;99487.14;220323;1257;140914;-68
2023/11/17 14:08:39;;;;;;;12.00;8.50;;;;;;;4.23;94.27;99492.33;220265;1257;140210;-69
2023/11/17 14:13:43;;;;;;;11.70;8.50;;;;;;;4.18;94.04;99496.24;220447;1257;140725;-69
2023/11/17 14:18:47;;;;;;;10.30;8.20;;;;;;;4.16;94.15;99506.34;220248;1257;140985;-69
2023/11/17 14:23:50;;;;;;;26.50;12.40;;;;;;;4.17;94.33;99509.23;218438;1257;139652;-68
2023/11/17 14:28:54;;;;;;;18.50;12.10;;;;;;;4.19;94.35;99518.65;220333;1257;140130;-72
2023/11/17 14:33:59;;;;;;;13.10;9.60;;;;;;;4.18;94.36;99522.13;219776;1256;141072;-71
2023/11/17 14:39:04;;;;;;;33.20;17.50;;;;;;;4.12;94.04;99527.55;219308;1257;140179;-75
2023/11/17 14:44:07;;;;;;;23.50;13.10;;;;;;;4.02;93.91;99533.63;220455;1257;140862;-71
2023/11/17 14:49:10;;;;;;;21.90;13.90;;;;;;;3.91;93.78;99544.73;220230;1256;140247;-70
2023/11/17 14:54:15;;;;;;;25.30;13.40;;;;;;;3.90;94.17;99548.98;220085;1256;140854;-68
2023/11/17 14:59:18;;;;;;;17.30;13.10;;;;;;;3.89;93.85;99556.31;220247;1257;140698;-69
2023/11/17 15:04:21;;;;;;;17.10;12.80;;;;;;;3.86;93.93;99557.39;220409;1257;140723;-71
2023/11/17 15:09:24;;;;;;;16.60;10.20;;;;;;;3.81;93.81;99559.92;220492;1257;140341;-69
2023/11/17 15:14:28;;;;;;;18.90;12.30;;;;;;;3.74;93.47;99570.17;218506;1257;206448;-68
2023/11/17 15:19:32;;;;;;;25.70;13.10;;;;;;;3.65;93.52;99580.77;218502;1256;141677;-67
2023/11/17 15:24:35;;;;;;;17.20;12.00;;;;;;;3.54;93.56;99584.23;218841;1257;140802;-70
2023/11/17 15:29:39;;;;;;;14.60;11.40;;;;;;;3.49;93.59;99584.59;218457;1256;140627;-68
2023/11/17 15:34:42;;;;;;;18.10;10.70;;;;;;;3.47;93.88;99588.66;219224;1256;139966;-71
2023/11/17 15:39:44;;;;;;;10.70;9.00;;;;;;;3.47;93.96;99588.88;220235;1256;140728;-71
2023/11/17 15:44:47;;;;;;;10.10;8.80;;;;;;;3.48;93.97;99592.64;220421;1254;139912;-71
2023/11/17 15:49:50;;;;;;;10.60;8.10;;;;;;;3.48;93.72;99601.60;219835;1256;141334;-70
2023/11/17 15:54:54;;;;;;;12.50;8.90;;;;;;;3.44;93.48;99614.23;220201;1256;140604;-71
2023/11/17 16:00:03;;;;;;;11.40;9.00;;;;;;;3.39;93.39;99617.23;220203;1256;141170;-70
2023/11/17 16:05:13;;;;;;;28.20;13.40;;;;;;;3.40;93.57;99620.52;219674;1256;141073;-72
2023/11/17 16:10:22;;;;;;;15.30;9.20;;;;;;;3.43;93.62;99628.92;220349;1256;140673;-71
2023/11/17 16:15:26;;;;;;;12.20;9.10;;;;;;;3.39;93.12;99632.22;220183;1256;140294;-72
2023/11/17 16:20:32;;;;;;;8.60;7.00;;;;;;;3.37;93.35;99634.84;220193;1256;140233;-73
2023/11/17 16:25:37;;;;;;;10.30;8.30;;;;;;;3.40;93.30;99642.97;220427;1255;140268;-71
2023/11/17 16:30:40;;;;;;;9.30;7.10;;;;;;;3.42;93.35;99649.96;220277;1256;141025;-72
2023/11/17 16:35:43;;;;;;;8.60;6.20;;;;;;;3.39;93.07;99656.42;220292;1257;140557;-73
2023/11/17 16:40:46;;;;;;;16.40;11.30;;;;;;;3.33;92.92;99661.58;219959;1257;141195;-72
2023/11/17 16:45:50;;;;;;;16.70;13.10;;;;;;;3.25;92.97;99661.34;220021;1257;140171;-70
2023/11/17 16:50:52;;;;;;;9.70;7.60;;;;;;;3.23;93.10;99664.23;220133;1256;141272;-71
2023/11/17 16:55:58;;;;;;;9.80;8.50;;;;;;;3.22;93.12;99670.96;220633;1256;140753;-70
2023/11/17 17:01:01;;;;;;;15.50;10.70;;;;;;;3.20;93.03;99675.64;220296;1255;140436;-74
2023/11/17 17:06:04;;;;;;;10.60;8.60;;;;;;;3.20;93.13;99680.46;220199;1257;142035;-70
2023/11/17 17:11:08;;;;;;;13.20;8.20;;;;;;;3.20;93.34;99683.38;220190;1257;140468;-70
2023/11/17 17:16:15;;;;;;;12.20;9.50;;;;;;;3.21;93.14;99685.86;219895;1257;141534;-69
2023/11/17 17:21:21;;;;;;;8.70;7.60;;;;;;;3.21;93.18;99694.17;220058;1256;140640;-70
2023/11/17 17:26:24;;;;;;;11.10;8.90;;;;;;;3.19;93.18;99699.46;220279;1255;141433;-72
2023/11/17 17:31:27;;;;;;;12.10;8.40;;;;;;;3.17;92.92;99704.25;218994;1257;140393;-70
2023/11/17 17:36:31;;;;;;;17.20;12.80;;;;;;;3.13;92.86;99707.27;220441;1257;140444;-69
2023/11/17 17:41:33;;;;;;;17.50;9.90;;;;;;;3.12;93.11;99713.35;220428;1256;140610;-70
2023/11/17 17:46:36;;;;;;;16.50;9.80;;;;;;;3.10;92.78;99713.30;220003;1257;143244;-68
2023/11/17 17:51:38;;;;;;;13.90;9.10;;;;;;;3.02;92.78;99712.76;218612;1258;140750;-70
2023/11/17 17:56:41;;;;;;;13.40;10.10;;;;;;;2.99;92.83;99718.06;220061;1255;140420;-71
2023/11/17 18:01:46;;;;;;;17.60;9.60;;;;;;;2.95;92.56;99723.61;220007;1255;141741;-69
2023/11/17 18:06:51;;;;;;;14.00;10.30;;;;;;;2.92;92.76;99731.10;220255;1256;141136;-71
2023/11/17 18:11:54;;;;;;;16.80;10.70;;;;;;;2.90;92.71;99732.02;220351;1256;141076;-72
2023/11/17 18:16:56;;;;;;;34.20;21.50;;;;;;;2.87;92.65;99731.16;220300;1256;140415;-71
2023/11/17 18:22:00;;;;;;;48.10;25.50;;;;;;;2.84;92.50;99730.60;218602;1256;142014;-70
2023/11/17 18:27:04;;;;;;;21.10;14.10;;;;;;;2.81;92.81;99734.28;220062;1257;140302;-73
2023/11/17 18:32:09;;;;;;;29.30;21.00;;;;;;;2.83;92.98;99742.65;220423;1256;141020;-71
2023/11/17 18:37:17;;;;;;;21.10;14.00;;;;;;;2.84;92.66;99743.10;220177;1256;140398;-71
2023/11/17 18:42:25;;;;;;;16.30;9.60;;;;;;;2.85;92.83;99747.37;220218;1256;140013;-73
2023/11/17 18:47:31;;;;;;;15.80;10.70;;;;;;;2.88;93.17;99751.27;218443;1260;141652;-72
2023/11/17 18:52:34;;;;;;;16.00;12.60;;;;;;;2.89;93.08;99748.98;220045;1256;140493;-72
2023/11/17 18:57:36;;;;;;;21.40;12.60;;;;;;;2.91;93.28;99749.96;220135;1256;140559;-73
2023/11/17 19:02:40;;;;;;;15.90;9.90;;;;;;;2.94;93.43;99753.08;220341;1255;141126;-70
2023/11/17 19:07:53;;;;;;;20.20;12.50;;;;;;;2.96;93.28;99756.35;219984;1256;140078;-71
2023/11/17 19:13:10;;;;;;;21.60;12.40;;;;;;;3.01;93.46;99754.55;219821;1257;140909;-71
2023/11/17 19:18:37;;;;;;;20.60;14.20;;;;;;;3.06;93.48;99757.79;219210;1255;139998;-71
2023/11/17 19:23:47;;;;;;;16.60;12.60;;;;;;;3.11;93.63;99764.63;220505;1256;140138;-72
2023/11/17 19:29:01;;;;;;;17.40;12.70;;;;;;;3.13;93.68;99763.69;220244;1258;140224;-72
2023/11/17 19:34:17;;;;;;;19.40;12.50;;;;;;;3.15;93.52;99769.03;219651;1256;140327;-74
2023/11/17 19:39:31;;;;;;;21.10;13.80;;;;;;;3.17;93.73;99769.52;219433;1256;142264;-72
2023/11/17 19:44:40;;;;;;;19.00;11.40;;;;;;;3.22;94.05;99764.98;219061;1256;140447;-72
2023/11/17 19:50:00;;;;;;;20.40;11.10;;;;;;;3.24;93.76;99760.78;220255;1256;140488;-71
2023/11/17 19:55:15;;;;;;;25.00;14.30;;;;;;;3.24;93.75;99761.03;220190;1256;140812;-70
2023/11/17 20:00:28;;;;;;;17.50;11.60;;;;;;;3.27;93.91;99762.93;220310;1256;140818;-70
2023/11/17 20:05:41;;;;;;;20.80;13.10;;;;;;;3.30;93.70;99764.58;220317;1256;140190;-72
2023/11/17 20:10:55;;;;;;;23.50;13.90;;;;;;;3.28;93.63;99766.14;220413;1257;140765;-72
2023/11/17 20:16:13;;;;;;;17.20;11.90;;;;;;;3.29;93.63;99762.05;220501;1255;141535;-74
2023/11/17 20:21:29;;;;;;;19.40;12.90;;;;;;;3.30;93.62;99762.67;220396;1256;140532;-74
2023/11/17 20:26:40;;;;;;;21.40;12.90;;;;;;;3.32;93.97;99762.09;220423;1255;139894;-75
2023/11/17 20:31:54;;;;;;;21.80;13.00;;;;;;;3.35;93.76;99761.96;220506;1256;140716;-75
2023/11/17 20:37:00;;;;;;;26.50;14.50;;;;;;;3.34;93.73;99763.73;220423;1257;141528;-74
2023/11/17 20:42:15;;;;;;;23.50;13.50;;;;;;;3.35;93.65;99766.34;220371;1256;141574;-71
2023/11/17 20:47:25;;;;;;;26.40;16.20;;;;;;;3.35;93.79;99762.90;220496;1257;142378;-71
2023/11/17 20:52:38;;;;;;;23.60;16.00;;;;;;;3.36;93.85;99766.86;218798;1256;140646;-75
2023/11/17 20:57:49;;;;;;;23.00;15.70;;;;;;;3.35;93.79;99773.88;218259;1255;141030;-78
2023/11/17 21:02:56;;;;;;;17.80;13.80;;;;;;;3.36;94.05;99775.34;220272;1257;141959;-76
2023/11/17 21:08:10;;;;;;;18.80;12.30;;;;;;;3.35;93.81;99777.81;220431;1256;140688;-76
2023/11/17 21:13:30;;;;;;;19.20;11.70;;;;;;;3.35;93.84;99786.77;220268;1256;141270;-74
2023/11/17 21:18:51;;;;;;;23.40;14.40;;;;;;;3.36;93.93;99793.62;219547;1262;140897;-74
2023/11/17 21:23:57;;;;;;;18.80;11.90;;;;;;;3.39;94.06;99797.65;219616;1262;141136;-79
2023/11/17 21:29:04;;;;;;;;;;;;;;;3.40;94.04;99794.58;218731;1262;140565;-74
2023/11/17 21:34:12;;;;;;;;;;;;;;;3.40;93.96;99801.39;219284;1262;126389;-75
2023/11/17 21:39:20;;;;;;;24.10;13.30;;;;;;;3.38;93.87;99805.30;218175;1262;127648;-72
2023/11/17 21:44:24;;;;;;;20.70;12.80;;;;;;;3.38;93.96;99810.01;218776;1262;141138;-74
2023/11/17 21:49:29;;;;;;;25.10;12.00;;;;;;;3.40;94.06;99808.81;218876;1256;141527;-72
2023/11/17 21:54:34;;;;;;;19.00;11.90;;;;;;;3.38;93.93;99816.17;220374;1256;140444;-75
2023/11/17 21:59:42;;;;;;;20.70;12.20;;;;;;;3.38;93.93;99820.79;217761;1256;140656;-72
2023/11/17 22:04:55;;;;;;;18.10;11.70;;;;;;;3.39;93.96;99831.98;220341;1256;141540;-78
2023/11/17 22:10:13;;;;;;;21.70;11.20;;;;;;;3.37;93.87;99837.93;220438;1256;140528;-74
2023/11/17 22:15:19;;;;;;;19.40;10.90;;;;;;;3.38;93.96;99837.41;220240;1256;140730;-73
2023/11/17 22:20:27;;;;;;;19.80;10.60;;;;;;;3.38;93.72;99835.99;220249;1256;141845;-74
2023/11/17 22:25:39;;;;;;;21.70;12.20;;;;;;;3.37;93.67;99842.71;220310;1256;143722;-79
2023/11/17 22:30:45;;;;;;;18.00;10.60;;;;;;;3.36;93.62;99847.73;220335;1257;140924;-74
2023/11/17 22:35:54;;;;;;;24.10;12.80;;;;;;;3.36;93.71;99854.17;220370;1257;143609;-72
2023/11/17 22:41:06;;;;;;;28.40;14.40;;;;;;;3.39;93.60;99861.27;220296;1256;141713;-71
2023/11/17 22:46:17;;;;;;;21.90;14.10;;;;;;;3.40;93.65;99866.05;220358;1257;140036;-74
2023/11/17 22:51:22;;;;;;;19.10;11.30;;;;;;;3.42;93.61;99862.17;219809;1256;141035;-74
2023/11/17 22:56:25;;;;;;;17.00;12.30;;;;;;;3.42;93.55;99862.67;219669;1256;141279;-74
2023/11/17 23:01:29;;;;;;;21.20;12.50;;;;;;;3.42;93.61;99859.88;220287;1256;140121;-73
2023/11/17 23:06:34;;;;;;;18.30;11.10;;;;;;;3.40;93.43;99858.96;218330;1256;141060;-73
2023/11/17 23:11:40;;;;;;;22.40;13.20;;;;;;;3.37;93.53;99856.04;220269;1256;140662;-72
2023/11/17 23:16:43;;;;;;;21.50;12.10;;;;;;;3.36;93.40;99857.59;220282;1254;140797;-76